createdAt,value
2018-08-20T00:02:00.873Z,2.20
2018-08-20T00:04:35.187Z,5.70
2018-08-20T00:07:03.855Z,5.27
2018-08-20T00:09:38.302Z,3.53
2018-08-20T00:12:08.154Z,3.20
2018-08-20T00:14:37.009Z,3.00
2018-08-20T00:17:05.810Z,2.70
2018-08-20T00:19:34.408Z,3.10
2018-08-20T00:22:03.338Z,2.83
2018-08-20T00:24:31.921Z,2.63
2018-08-20T00:27:02.354Z,4.63
2018-08-20T00:29:31.284Z,3.00
2018-08-20T00:32:00.175Z,4.40
2018-08-20T00:34:29.946Z,2.60
2018-08-20T00:36:58.849Z,2.40
2018-08-20T00:39:28.030Z,2.63
2018-08-20T00:41:57.290Z,3.13
2018-08-20T00:44:26.830Z,2.50
2018-08-20T00:46:55.641Z,2.30
2018-08-20T00:49:24.325Z,2.63
2018-08-20T00:51:53.659Z,2.43
2018-08-20T00:54:23.160Z,2.47
2018-08-20T00:56:51.664Z,2.10
2018-08-20T00:59:20.446Z,2.13
2018-08-20T01:01:49.248Z,3.60
2018-08-20T01:04:18.113Z,2.73
2018-08-20T01:06:46.539Z,3.83
2018-08-20T01:09:15.086Z,3.07
2018-08-20T01:11:44.336Z,2.60
2018-08-20T01:14:12.965Z,3.00
2018-08-20T01:16:42.456Z,3.43
2018-08-20T01:19:11.321Z,3.10
2018-08-20T01:21:40.101Z,3.13
2018-08-20T01:24:09.410Z,5.00
2018-08-20T01:26:37.867Z,3.67
2018-08-20T01:29:06.585Z,3.83
2018-08-20T01:31:35.324Z,2.87
2018-08-20T01:34:03.921Z,3.57
2018-08-20T01:36:32.653Z,3.57
2018-08-20T01:39:01.313Z,2.90
2018-08-20T01:41:30.388Z,3.17
2018-08-20T01:43:59.313Z,2.50
2018-08-20T01:46:27.765Z,2.40
2018-08-20T01:48:56.425Z,2.17
2018-08-20T01:51:25.088Z,3.13
2018-08-20T01:53:53.649Z,3.37
2018-08-20T01:56:22.617Z,3.33
2018-08-20T01:58:52.105Z,4.90
2018-08-20T02:01:20.596Z,3.70
2018-08-20T02:03:49.423Z,3.07
2018-08-20T02:06:18.027Z,3.30
2018-08-20T02:08:46.614Z,2.40
2018-08-20T02:11:15.477Z,2.27
2018-08-20T02:13:44.249Z,2.70
2018-08-20T02:16:12.860Z,2.67
2018-08-20T02:18:41.721Z,3.70
2018-08-20T02:21:10.412Z,3.07
2018-08-20T02:23:39.220Z,2.77
2018-08-20T02:26:08.133Z,2.80
2018-08-20T02:28:36.902Z,3.97
2018-08-20T02:31:06.657Z,3.30
2018-08-20T02:33:35.490Z,4.60
2018-08-20T02:36:04.319Z,3.50
2018-08-20T02:38:33.083Z,3.10
2018-08-20T02:41:02.277Z,4.53
2018-08-20T02:43:31.016Z,5.60
2018-08-20T02:45:59.539Z,6.30
2018-08-20T02:48:28.234Z,6.20
2018-08-20T02:50:57.016Z,6.03
2018-08-20T02:53:25.624Z,3.70
2018-08-20T02:55:54.236Z,3.10
2018-08-20T02:58:22.739Z,2.70
2018-08-20T03:00:51.748Z,3.03
2018-08-20T03:03:20.293Z,2.77
2018-08-20T03:05:48.862Z,3.73
2018-08-20T03:08:17.446Z,3.87
2018-08-20T03:10:46.773Z,3.57
2018-08-20T03:13:15.357Z,4.63
2018-08-20T03:15:44.709Z,3.57
2018-08-20T03:18:13.281Z,3.80
2018-08-20T03:20:41.830Z,2.77
2018-08-20T03:23:10.564Z,2.40
2018-08-20T03:25:39.076Z,2.57
2018-08-20T03:28:08.852Z,2.63
2018-08-20T03:30:37.773Z,3.17
2018-08-20T03:33:06.411Z,5.50
2018-08-20T03:35:35.135Z,6.43
2018-08-20T03:38:03.858Z,5.47
2018-08-20T03:40:33.233Z,5.50
2018-08-20T03:43:02.147Z,4.40
2018-08-20T03:45:30.901Z,5.27
2018-08-20T03:48:00.207Z,3.47
2018-08-20T03:50:28.902Z,3.10
2018-08-20T03:52:57.448Z,4.53
2018-08-20T03:55:26.040Z,5.87
2018-08-20T03:57:54.570Z,6.10
2018-08-20T04:00:24.517Z,6.20
2018-08-20T04:02:53.477Z,4.80
2018-08-20T04:05:22.036Z,3.57
2018-08-20T04:07:50.640Z,4.23
2018-08-20T04:10:20.117Z,2.80
2018-08-20T04:12:48.614Z,6.20
2018-08-20T04:15:17.219Z,4.30
2018-08-20T04:17:45.833Z,5.97
2018-08-20T04:20:14.481Z,4.80
2018-08-20T04:22:42.889Z,5.70
2018-08-20T04:25:11.512Z,6.17
2018-08-20T04:27:39.953Z,3.87
2018-08-20T04:30:08.378Z,5.40
2018-08-20T04:32:36.800Z,6.40
2018-08-20T04:35:05.653Z,4.77
2018-08-20T04:37:34.373Z,5.57
2018-08-20T04:40:02.935Z,6.93
2018-08-20T04:42:32.761Z,6.90
2018-08-20T04:45:01.199Z,6.57
2018-08-20T04:47:29.738Z,5.00
2018-08-20T04:49:58.543Z,7.00
2018-08-20T04:52:26.898Z,6.57
2018-08-20T04:54:55.482Z,7.10
2018-08-20T04:57:23.914Z,4.10
2018-08-20T04:59:52.364Z,3.83
2018-08-20T05:02:21.468Z,4.47
2018-08-20T05:04:49.933Z,6.17
2018-08-20T05:07:18.581Z,8.40
2018-08-20T05:09:47.012Z,8.13
2018-08-20T05:12:16.024Z,7.80
2018-08-20T05:14:44.518Z,7.03
2018-08-20T05:17:13.508Z,7.10
2018-08-20T05:19:42.195Z,6.87
2018-08-20T05:22:10.968Z,7.73
2018-08-20T05:24:40.439Z,8.37
2018-08-20T05:27:08.995Z,8.10
2018-08-20T05:29:37.426Z,6.90
2018-08-20T05:32:06.167Z,6.13
2018-08-20T05:34:35.141Z,8.10
2018-08-20T05:37:03.866Z,8.00
2018-08-20T05:39:32.641Z,8.20
2018-08-20T05:42:01.505Z,8.97
2018-08-20T05:44:31.051Z,9.07
2018-08-20T05:46:59.745Z,6.83
2018-08-20T05:49:28.227Z,4.83
2018-08-20T05:51:57.197Z,5.27
2018-08-20T05:54:25.846Z,6.13
2018-08-20T05:56:55.168Z,6.60
2018-08-20T05:59:23.991Z,6.43
2018-08-20T06:01:52.810Z,6.67
2018-08-20T06:04:21.349Z,7.20
2018-08-20T06:06:51.901Z,5.87
2018-08-20T06:09:20.491Z,6.40
2018-08-20T06:11:49.331Z,6.47
2018-08-20T06:14:18.980Z,7.70
2018-08-20T06:16:47.574Z,4.93
2018-08-20T06:19:16.185Z,7.27
2018-08-20T06:21:45.155Z,8.57
2018-08-20T06:24:13.902Z,7.03
2018-08-20T06:26:42.525Z,8.80
2018-08-20T06:29:11.028Z,7.70
2018-08-20T06:31:39.758Z,7.50
2018-08-20T06:34:09.052Z,8.67
2018-08-20T06:36:37.625Z,5.17
2018-08-20T06:39:07.925Z,10.03
2018-08-20T06:41:36.578Z,7.33
2018-08-20T06:44:05.366Z,5.50
2018-08-20T06:46:33.936Z,6.47
2018-08-20T06:49:02.470Z,7.60
2018-08-20T06:51:31.228Z,8.33
2018-08-20T06:53:59.812Z,4.93
2018-08-20T06:56:28.671Z,5.97
2018-08-20T06:58:57.249Z,5.40
2018-08-20T07:01:25.773Z,8.07
2018-08-20T07:03:54.325Z,6.70
2018-08-20T07:06:23.037Z,5.90
2018-08-20T07:08:51.526Z,5.70
2018-08-20T07:11:20.625Z,5.33
2018-08-20T07:13:49.568Z,6.83
2018-08-20T07:19:18.348Z,7.80
2018-08-20T07:21:47.161Z,6.80
2018-08-20T07:24:15.959Z,7.23
2018-08-20T07:26:44.790Z,5.60
2018-08-20T07:29:15.294Z,5.50
2018-08-20T07:31:44.303Z,4.90
2018-08-20T07:34:12.783Z,5.50
2018-08-20T07:36:42.126Z,6.37
2018-08-20T07:39:10.840Z,5.47
2018-08-20T07:41:39.454Z,5.00
2018-08-20T07:44:08.038Z,5.30
2018-08-20T07:46:36.686Z,6.07
2018-08-20T07:49:10.252Z,5.40
2018-08-20T07:51:38.979Z,4.83
2018-08-20T07:54:07.580Z,5.20
2018-08-20T07:56:36.376Z,5.45
2018-08-20T07:59:05.034Z,4.40
2018-08-20T08:01:33.530Z,5.00
2018-08-20T08:04:02.525Z,4.85
2018-08-20T08:06:31.814Z,4.67
2018-08-20T08:09:00.557Z,5.67
2018-08-20T08:11:29.202Z,4.00
2018-08-20T08:13:57.839Z,4.45
2018-08-20T08:16:26.398Z,4.72
2018-08-20T08:18:55.179Z,5.35
2018-08-20T08:21:23.809Z,5.83
2018-08-20T08:23:52.508Z,5.92
2018-08-20T08:26:21.300Z,5.47
2018-08-20T08:28:50.222Z,3.83
2018-08-20T08:31:19.007Z,4.53
2018-08-20T08:33:47.908Z,5.05
2018-08-20T08:36:17.002Z,4.90
2018-08-20T08:38:45.563Z,4.97
2018-08-20T08:41:14.165Z,4.97
2018-08-20T08:43:43.002Z,3.83
2018-08-20T08:46:11.610Z,5.37
2018-08-20T08:48:47.005Z,4.53
2018-08-20T08:51:15.796Z,4.53
2018-08-20T08:53:44.396Z,4.35
2018-08-20T08:56:13.014Z,5.17
2018-08-20T08:58:41.945Z,5.12
2018-08-20T09:01:10.650Z,5.30
2018-08-20T09:03:39.263Z,4.47
2018-08-20T09:06:08.157Z,4.80
2018-08-20T09:08:36.763Z,4.58
2018-08-20T09:11:05.885Z,4.40
2018-08-20T09:13:34.835Z,3.87
2018-08-20T09:16:04.372Z,4.28
2018-08-20T09:18:39.445Z,4.35
2018-08-20T09:21:07.945Z,4.10
2018-08-20T09:23:36.642Z,5.12
2018-08-20T09:26:05.120Z,4.25
2018-08-20T09:28:34.023Z,4.92
2018-08-20T09:31:03.153Z,5.00
2018-08-20T09:33:32.909Z,5.00
2018-08-20T09:36:01.396Z,4.87
2018-08-20T09:38:30.325Z,4.92
2018-08-20T09:40:59.566Z,4.60
2018-08-20T09:43:28.041Z,4.10
2018-08-20T09:45:57.106Z,4.47
2018-08-20T09:48:25.603Z,5.33
2018-08-20T09:50:54.500Z,4.30
2018-08-20T09:53:23.246Z,5.00
2018-08-20T09:55:51.681Z,4.50
2018-08-20T09:58:20.196Z,3.10
2018-08-20T10:00:48.813Z,4.67
2018-08-20T10:03:17.452Z,4.00
2018-08-20T10:05:46.119Z,3.77
2018-08-20T10:08:14.593Z,4.20
2018-08-20T10:10:43.958Z,4.15
2018-08-20T10:13:12.546Z,4.60
2018-08-20T10:15:42.291Z,4.83
2018-08-20T10:18:10.931Z,4.28
2018-08-20T10:20:39.516Z,4.90
2018-08-20T10:23:08.706Z,4.90
2018-08-20T10:25:37.272Z,5.35
2018-08-20T10:28:06.117Z,5.03
2018-08-20T10:30:35.312Z,3.95
2018-08-20T10:33:03.964Z,4.83
2018-08-20T10:35:32.574Z,5.22
2018-08-20T10:38:01.230Z,3.75
2018-08-20T10:40:30.607Z,4.28
2018-08-20T10:42:59.133Z,5.12
2018-08-20T10:45:32.971Z,4.15
2018-08-20T10:48:01.762Z,4.25
2018-08-20T10:50:30.360Z,4.47
2018-08-20T10:52:59.366Z,3.90
2018-08-20T10:55:27.933Z,4.45
2018-08-20T10:57:56.527Z,3.72
2018-08-20T11:00:25.129Z,3.10
2018-08-20T11:02:53.623Z,3.30
2018-08-20T11:05:22.073Z,3.55
2018-08-20T11:07:51.233Z,4.80
2018-08-20T11:10:20.130Z,4.47
2018-08-20T11:12:48.749Z,4.67
2018-08-20T11:15:17.469Z,3.83
2018-08-20T11:17:45.900Z,3.40
2018-08-20T11:20:15.425Z,4.00
2018-08-20T11:22:44.237Z,3.02
2018-08-20T11:25:13.732Z,3.10
2018-08-20T11:27:42.436Z,3.45
2018-08-20T11:30:12.487Z,3.62
2018-08-20T11:32:41.047Z,3.52
2018-08-20T11:35:10.634Z,3.52
2018-08-20T11:37:39.422Z,4.15
2018-08-20T11:40:09.016Z,3.90
2018-08-20T11:42:37.596Z,4.17
2018-08-20T11:45:09.162Z,3.60
2018-08-20T11:47:37.925Z,3.62
2018-08-20T11:50:06.738Z,3.62
2018-08-20T11:52:35.530Z,3.98
2018-08-20T11:55:04.772Z,3.85
2018-08-20T11:57:33.885Z,4.22
2018-08-20T12:00:02.594Z,4.25
2018-08-20T12:02:31.934Z,3.62
2018-08-20T12:05:00.531Z,3.45
2018-08-20T12:07:29.246Z,3.87
2018-08-20T12:09:57.750Z,3.37
2018-08-20T12:12:26.860Z,3.87
2018-08-20T12:14:55.451Z,3.25
2018-08-20T12:17:24.098Z,3.20
2018-08-20T12:19:52.768Z,3.10
2018-08-20T12:22:21.508Z,3.83
2018-08-20T12:24:49.990Z,3.25
2018-08-20T12:27:18.639Z,3.50
2018-08-20T12:29:47.389Z,4.30
2018-08-20T12:32:16.042Z,3.75
2018-08-20T12:34:44.910Z,4.15
2018-08-20T12:37:13.343Z,4.42
2018-08-20T12:39:41.990Z,4.15
2018-08-20T12:42:11.325Z,4.12
2018-08-20T12:44:39.772Z,4.45
2018-08-20T12:47:09.090Z,5.08
2018-08-20T12:49:37.897Z,4.58
2018-08-20T12:52:07.630Z,5.22
2018-08-20T12:54:36.164Z,4.95
2018-08-20T12:57:04.641Z,4.58
2018-08-20T12:59:33.288Z,5.17
2018-08-20T13:02:01.808Z,4.75
2018-08-20T13:04:30.307Z,5.15
2018-08-20T13:06:58.877Z,5.03
2018-08-20T13:09:28.229Z,4.45
2018-08-20T13:11:56.937Z,3.87
2018-08-20T13:14:25.680Z,5.10
2018-08-20T13:16:54.564Z,4.40
2018-08-20T13:19:23.013Z,4.42
2018-08-20T13:21:52.334Z,5.50
2018-08-20T13:24:21.082Z,4.92
2018-08-20T13:26:49.895Z,4.47
2018-08-20T13:29:18.633Z,3.87
2018-08-20T13:31:47.300Z,5.12
2018-08-20T13:34:16.261Z,4.58
2018-08-20T13:36:44.722Z,5.42
2018-08-20T13:39:13.390Z,5.03
2018-08-20T13:41:41.930Z,4.40
2018-08-20T13:44:10.957Z,4.85
2018-08-20T13:46:39.486Z,4.72
2018-08-20T13:49:08.745Z,4.83
2018-08-20T13:51:37.442Z,4.95
2018-08-20T13:54:06.129Z,4.70
2018-08-20T13:56:34.648Z,4.65
2018-08-20T13:59:03.301Z,4.20
2018-08-20T14:01:32.038Z,4.70
2018-08-20T14:04:00.531Z,4.42
2018-08-20T14:06:29.188Z,4.10
2018-08-20T14:08:57.897Z,4.78
2018-08-20T14:11:26.513Z,4.47
2018-08-20T14:13:55.157Z,4.42
2018-08-20T14:16:23.608Z,4.37
2018-08-20T14:18:52.377Z,4.25
2018-08-20T14:21:21.044Z,3.72
2018-08-20T14:23:50.165Z,5.45
2018-08-20T14:26:19.014Z,4.70
2018-08-20T14:28:48.289Z,3.98
2018-08-20T14:31:17.181Z,4.47
2018-08-20T14:33:45.887Z,4.35
2018-08-20T14:36:14.316Z,4.90
2018-08-20T14:38:43.117Z,4.58
2018-08-20T14:41:11.764Z,5.10
2018-08-20T14:43:40.349Z,4.50
2018-08-20T14:46:14.368Z,5.08
2018-08-20T14:48:43.609Z,5.30
2018-08-20T14:51:12.176Z,4.80
2018-08-20T14:53:40.795Z,5.25
2018-08-20T14:56:09.406Z,4.87
2018-08-20T14:58:38.444Z,5.00
2018-08-20T15:01:07.670Z,5.15
2018-08-20T15:03:36.227Z,5.28
2018-08-20T15:06:04.930Z,5.20
2018-08-20T15:08:35.837Z,5.17
2018-08-20T15:11:04.724Z,5.17
2018-08-20T15:13:33.511Z,4.87
2018-08-20T15:16:02.396Z,4.97
2018-08-20T15:18:31.296Z,4.75
2018-08-20T15:21:00.232Z,5.30
2018-08-20T15:23:28.729Z,4.50
2018-08-20T15:25:57.252Z,5.33
2018-08-20T15:28:25.933Z,4.70
2018-08-20T15:30:54.663Z,4.97
2018-08-20T15:33:23.933Z,5.25
2018-08-20T15:35:52.733Z,4.90
2018-08-20T15:38:21.498Z,4.92
2018-08-20T15:40:49.978Z,4.22
2018-08-20T15:43:18.529Z,4.85
2018-08-20T15:45:47.216Z,4.20
2018-08-20T15:48:15.922Z,5.35
2018-08-20T15:50:44.590Z,5.20
2018-08-20T15:53:13.064Z,5.20
2018-08-20T15:55:42.326Z,5.22
2018-08-20T15:58:11.345Z,4.45
2018-08-20T16:00:39.918Z,4.47
2018-08-20T16:03:08.851Z,4.97
2018-08-20T16:05:38.169Z,4.15
2018-08-20T16:08:06.865Z,5.20
2018-08-20T16:10:35.353Z,5.03
2018-08-20T16:13:04.227Z,4.85
2018-08-20T16:15:32.641Z,4.60
2018-08-20T16:18:02.028Z,4.78
2018-08-20T16:20:30.800Z,5.03
2018-08-20T16:22:59.249Z,4.70
2018-08-20T16:25:27.735Z,4.92
2018-08-20T16:27:56.896Z,5.28
2018-08-20T16:30:25.696Z,4.30
2018-08-20T16:32:54.236Z,5.17
2018-08-20T16:35:23.775Z,4.97
2018-08-20T16:37:52.426Z,4.80
2018-08-20T16:40:21.034Z,4.17
2018-08-20T16:42:49.779Z,4.17
2018-08-20T16:45:19.256Z,4.28
2018-08-20T16:47:48.016Z,4.45
2018-08-20T16:50:17.424Z,4.40
2018-08-20T16:52:46.038Z,4.60
2018-08-20T16:55:14.702Z,3.98
2018-08-20T16:57:43.144Z,3.90
2018-08-20T17:00:12.686Z,3.70
2018-08-20T17:02:42.852Z,3.80
2018-08-20T17:05:12.906Z,3.47
2018-08-20T17:07:41.673Z,3.42
2018-08-20T17:10:11.807Z,3.30
2018-08-20T17:12:41.049Z,3.92
2018-08-20T17:15:13.422Z,3.80
2018-08-20T17:17:42.168Z,4.20
2018-08-20T17:20:12.481Z,3.15
2018-08-20T17:22:42.322Z,4.10
2018-08-20T17:25:11.043Z,3.80
2018-08-20T17:27:39.726Z,3.90
2018-08-20T17:30:09.389Z,3.95
2018-08-20T17:32:37.929Z,3.27
2018-08-20T17:35:08.177Z,3.20
2018-08-20T17:37:36.873Z,2.80
2018-08-20T17:40:09.100Z,3.10
2018-08-20T17:42:37.725Z,3.33
2018-08-20T17:45:08.458Z,2.60
2018-08-20T17:47:39.822Z,3.40
2018-08-20T17:50:49.082Z,2.98
2018-08-20T17:53:18.193Z,3.08
2018-08-20T17:55:47.586Z,2.72
2018-08-20T17:58:16.186Z,3.00
2018-08-20T18:00:50.041Z,3.15
2018-08-20T18:03:24.239Z,2.47
2018-08-20T18:05:55.090Z,2.98
2018-08-20T18:08:25.013Z,2.65
2018-08-20T18:10:53.754Z,2.92
2018-08-20T18:13:34.584Z,2.92
2018-08-20T18:16:05.189Z,2.30
2018-08-20T18:18:34.509Z,2.60
2018-08-20T18:21:03.262Z,2.77
2018-08-20T18:23:33.130Z,2.27
2018-08-20T18:26:01.707Z,2.75
2018-08-20T18:28:42.090Z,3.25
2018-08-20T18:31:12.994Z,2.62
2018-08-20T18:33:43.234Z,2.70
2018-08-20T18:36:15.780Z,1.70
2018-08-20T18:39:00.765Z,1.82
2018-08-20T18:42:14.442Z,1.90
2018-08-20T18:44:43.686Z,1.60
2018-08-20T18:47:14.508Z,1.50
2018-08-20T18:49:49.476Z,1.37
2018-08-20T18:52:18.225Z,2.00
2018-08-20T18:54:50.896Z,1.65
2018-08-20T18:57:21.932Z,1.85
2018-08-20T18:59:50.534Z,1.95
2018-08-20T19:02:36.957Z,1.47
2018-08-20T19:05:08.714Z,1.42
2018-08-20T19:07:37.464Z,1.30
2018-08-20T19:10:09.597Z,2.60
2018-08-20T19:12:38.941Z,2.30
2018-08-20T19:15:23.249Z,2.10
2018-08-20T19:17:52.257Z,1.80
2018-08-20T19:20:21.116Z,1.62
2018-08-20T19:22:49.772Z,1.55
2018-08-20T19:25:18.542Z,1.47
2018-08-20T19:27:47.261Z,1.90
2018-08-20T19:30:21.113Z,2.83
2018-08-20T19:32:49.739Z,1.87
2018-08-20T19:35:18.628Z,1.35
2018-08-20T19:37:47.544Z,1.50
2018-08-20T19:40:16.152Z,1.30
2018-08-20T19:42:44.882Z,1.30
2018-08-20T19:45:14.089Z,1.65
2018-08-20T19:47:42.841Z,1.20
2018-08-20T19:50:12.824Z,1.70
2018-08-20T19:52:41.237Z,1.45
2018-08-20T19:55:11.709Z,1.30
2018-08-20T19:57:40.633Z,2.52
2018-08-20T20:00:11.972Z,2.08
2018-08-20T20:02:42.977Z,1.85
2018-08-20T20:05:14.954Z,2.00
2018-08-20T20:07:56.786Z,1.40
2018-08-20T20:10:25.448Z,2.02
2018-08-20T20:12:55.020Z,1.72
2018-08-20T20:15:25.180Z,1.62
2018-08-20T20:17:54.977Z,2.22
2018-08-20T20:20:24.360Z,1.92
2018-08-20T20:22:52.954Z,2.33
2018-08-20T20:25:21.768Z,2.37
2018-08-20T20:27:50.323Z,1.60
2018-08-20T20:30:18.997Z,2.33
2018-08-20T20:32:48.217Z,1.90
2018-08-20T20:35:16.934Z,2.30
2018-08-20T20:37:45.586Z,2.30
2018-08-20T20:40:14.423Z,2.25
2018-08-20T20:42:43.019Z,2.40
2018-08-20T20:45:11.665Z,1.52
2018-08-20T20:47:40.697Z,1.90
2018-08-20T20:50:09.445Z,1.90
2018-08-20T20:52:37.991Z,1.50
2018-08-20T20:55:06.549Z,1.50
2018-08-20T20:57:35.189Z,3.02
2018-08-20T21:00:04.232Z,1.98
2018-08-20T21:02:33.377Z,1.72
2018-08-20T21:05:06.486Z,1.30
2018-08-20T21:07:35.187Z,1.42
2018-08-20T21:10:04.441Z,1.22
2018-08-20T21:12:33.416Z,1.82
2018-08-20T21:15:02.314Z,1.75
2018-08-20T21:17:35.036Z,1.60
2018-08-20T21:20:04.357Z,2.17
2018-08-20T21:22:36.542Z,3.73
2018-08-20T21:25:06.578Z,3.33
2018-08-20T21:27:35.446Z,2.60
2018-08-20T21:30:04.893Z,2.60
2018-08-20T21:32:34.628Z,3.72
2018-08-20T21:35:03.211Z,2.90
2018-08-20T21:37:31.989Z,2.60
2018-08-20T21:40:01.354Z,1.90
2018-08-20T21:42:35.240Z,2.53
2018-08-20T21:45:03.693Z,1.90
2018-08-20T21:47:32.335Z,1.90
2018-08-20T21:50:01.552Z,1.50
2018-08-20T21:52:29.961Z,1.83
2018-08-20T21:54:58.858Z,2.03
2018-08-20T21:57:27.450Z,1.80
2018-08-20T22:00:08.624Z,2.20
2018-08-20T22:02:38.432Z,1.83
2018-08-20T22:05:07.793Z,2.10
2018-08-20T22:07:36.974Z,2.43
2018-08-20T22:10:12.240Z,3.20
2018-08-20T22:12:40.881Z,3.50
2018-08-20T22:15:09.850Z,4.33
2018-08-20T22:17:41.818Z,3.13
2018-08-20T22:20:10.506Z,2.27
2018-08-20T22:22:39.488Z,2.07
2018-08-20T22:25:11.474Z,2.30
2018-08-20T22:27:45.383Z,2.57
2018-08-20T22:30:15.336Z,3.20
2018-08-20T22:32:44.442Z,2.60
2018-08-20T22:35:18.261Z,2.07
2018-08-20T22:37:49.866Z,2.80
2018-08-20T22:40:20.069Z,4.70
2018-08-20T22:42:56.998Z,3.47
2018-08-20T22:45:25.878Z,2.40
2018-08-20T22:47:55.405Z,2.00
2018-08-20T22:50:24.041Z,1.90
2018-08-20T22:52:52.753Z,4.43
2018-08-20T22:55:22.427Z,3.07
2018-08-20T22:58:06.047Z,2.87
2018-08-20T23:00:35.612Z,2.50
2018-08-20T23:03:04.197Z,2.37
2018-08-20T23:05:33.419Z,2.00
2018-08-20T23:08:08.674Z,2.23
2018-08-20T23:10:42.078Z,2.40
2018-08-20T23:13:10.492Z,2.10
2018-08-20T23:15:39.205Z,2.20
2018-08-20T23:18:07.810Z,1.93
2018-08-20T23:20:37.091Z,2.37
2018-08-20T23:23:06.173Z,1.90
2018-08-20T23:25:34.636Z,1.90
2018-08-20T23:28:02.988Z,2.40
2018-08-20T23:30:31.978Z,4.07
2018-08-20T23:33:00.428Z,4.50
2018-08-20T23:35:29.103Z,2.97
2018-08-20T23:37:58.466Z,2.13
2018-08-20T23:40:27.025Z,2.10
2018-08-20T23:42:56.368Z,1.97
2018-08-20T23:45:25.251Z,2.30
2018-08-20T23:47:54.021Z,2.33
2018-08-20T23:50:22.833Z,3.17
2018-08-20T23:52:51.486Z,2.60
2018-08-20T23:55:20.101Z,2.43
2018-08-20T23:57:48.544Z,1.93
